sensor_id;sensor_type;location;lat;lon;timestamp;P1;durP1;ratioP1;P2;durP2;ratioP2
37805;SDS011;25082;50.870;0.022;2023-09-12T00:01:08;5.68;;;3.03;;
37805;SDS011;25082;50.870;0.022;2023-09-12T00:03:34;3.83;;;2.55;;
37805;SDS011;25082;50.870;0.022;2023-09-12T00:06:01;4.57;;;3.15;;
37805;SDS011;25082;50.870;0.022;2023-09-12T00:08:27;4.03;;;2.78;;
37805;SDS011;25082;50.870;0.022;2023-09-12T00:11:02;4.80;;;3.17;;
37805;SDS011;25082;50.870;0.022;2023-09-12T00:13:30;3.88;;;2.90;;
37805;SDS011;25082;50.870;0.022;2023-09-12T00:15:56;4.05;;;2.65;;
37805;SDS011;25082;50.870;0.022;2023-09-12T00:18:22;5.78;;;3.25;;
37805;SDS011;25082;50.870;0.022;2023-09-12T00:20:49;5.20;;;3.40;;
37805;SDS011;25082;50.870;0.022;2023-09-12T00:23:15;4.97;;;3.60;;
37805;SDS011;25082;50.870;0.022;2023-09-12T00:25:41;4.80;;;3.88;;
37805;SDS011;25082;50.870;0.022;2023-09-12T00:28:07;5.60;;;3.55;;
37805;SDS011;25082;50.870;0.022;2023-09-12T00:30:32;4.18;;;3.28;;
37805;SDS011;25082;50.870;0.022;2023-09-12T00:32:58;4.70;;;3.45;;
37805;SDS011;25082;50.870;0.022;2023-09-12T00:35:24;5.82;;;3.85;;
37805;SDS011;25082;50.870;0.022;2023-09-12T00:37:49;4.70;;;3.45;;
37805;SDS011;25082;50.870;0.022;2023-09-12T00:40:15;4.95;;;3.30;;
37805;SDS011;25082;50.870;0.022;2023-09-12T00:42:41;4.20;;;3.65;;
37805;SDS011;25082;50.870;0.022;2023-09-12T00:45:06;6.60;;;3.72;;
37805;SDS011;25082;50.870;0.022;2023-09-12T00:47:32;4.38;;;3.30;;
37805;SDS011;25082;50.870;0.022;2023-09-12T00:49:59;5.32;;;3.88;;
37805;SDS011;25082;50.870;0.022;2023-09-12T00:52:26;6.63;;;3.85;;
37805;SDS011;25082;50.870;0.022;2023-09-12T00:54:53;4.95;;;3.85;;
37805;SDS011;25082;50.870;0.022;2023-09-12T00:57:20;5.10;;;4.13;;
37805;SDS011;25082;50.870;0.022;2023-09-12T00:59:47;5.30;;;4.03;;
37805;SDS011;25082;50.870;0.022;2023-09-12T01:02:14;7.10;;;3.95;;
37805;SDS011;25082;50.870;0.022;2023-09-12T01:04:40;5.60;;;3.88;;
37805;SDS011;25082;50.870;0.022;2023-09-12T01:07:07;8.60;;;5.13;;
37805;SDS011;25082;50.870;0.022;2023-09-12T01:09:33;4.68;;;3.83;;
37805;SDS011;25082;50.870;0.022;2023-09-12T01:11:59;4.95;;;3.88;;
37805;SDS011;25082;50.870;0.022;2023-09-12T01:14:29;5.93;;;4.10;;
37805;SDS011;25082;50.870;0.022;2023-09-12T01:16:55;7.35;;;4.28;;
37805;SDS011;25082;50.870;0.022;2023-09-12T01:19:22;4.22;;;3.40;;
37805;SDS011;25082;50.870;0.022;2023-09-12T01:29:53;6.30;;;4.38;;
37805;SDS011;25082;50.870;0.022;2023-09-12T01:32:22;5.95;;;4.47;;
37805;SDS011;25082;50.870;0.022;2023-09-12T01:34:48;5.03;;;4.00;;
37805;SDS011;25082;50.870;0.022;2023-09-12T01:37:14;6.13;;;4.03;;
37805;SDS011;25082;50.870;0.022;2023-09-12T01:39:40;5.65;;;4.43;;
37805;SDS011;25082;50.870;0.022;2023-09-12T01:42:06;6.70;;;4.65;;
37805;SDS011;25082;50.870;0.022;2023-09-12T01:44:36;6.10;;;4.40;;
37805;SDS011;25082;50.870;0.022;2023-09-12T01:47:03;5.75;;;4.25;;
37805;SDS011;25082;50.870;0.022;2023-09-12T01:49:31;6.00;;;4.00;;
37805;SDS011;25082;50.870;0.022;2023-09-12T01:51:57;7.63;;;4.90;;
37805;SDS011;25082;50.870;0.022;2023-09-12T01:54:25;5.13;;;3.97;;
37805;SDS011;25082;50.870;0.022;2023-09-12T01:56:52;4.63;;;4.13;;
37805;SDS011;25082;50.870;0.022;2023-09-12T01:59:22;6.38;;;4.50;;
37805;SDS011;25082;50.870;0.022;2023-09-12T02:01:48;6.20;;;4.80;;
37805;SDS011;25082;50.870;0.022;2023-09-12T02:04:14;6.55;;;4.97;;
37805;SDS011;25082;50.870;0.022;2023-09-12T02:06:40;6.20;;;4.15;;
37805;SDS011;25082;50.870;0.022;2023-09-12T02:09:05;6.18;;;5.05;;
37805;SDS011;25082;50.870;0.022;2023-09-12T02:11:31;6.40;;;5.20;;
37805;SDS011;25082;50.870;0.022;2023-09-12T02:13:57;5.22;;;4.25;;
37805;SDS011;25082;50.870;0.022;2023-09-12T02:16:22;6.22;;;4.38;;
37805;SDS011;25082;50.870;0.022;2023-09-12T02:18:48;6.43;;;4.55;;
37805;SDS011;25082;50.870;0.022;2023-09-12T02:21:14;5.97;;;4.30;;
37805;SDS011;25082;50.870;0.022;2023-09-12T02:23:41;6.28;;;4.82;;
37805;SDS011;25082;50.870;0.022;2023-09-12T02:26:07;7.38;;;4.65;;
37805;SDS011;25082;50.870;0.022;2023-09-12T02:28:33;5.65;;;4.72;;
37805;SDS011;25082;50.870;0.022;2023-09-12T02:30:58;6.72;;;4.68;;
37805;SDS011;25082;50.870;0.022;2023-09-12T02:33:24;6.75;;;4.30;;
37805;SDS011;25082;50.870;0.022;2023-09-12T02:35:50;7.57;;;4.45;;
37805;SDS011;25082;50.870;0.022;2023-09-12T02:38:16;5.93;;;4.80;;
37805;SDS011;25082;50.870;0.022;2023-09-12T02:40:42;5.32;;;3.85;;
37805;SDS011;25082;50.870;0.022;2023-09-12T02:43:08;5.93;;;4.78;;
37805;SDS011;25082;50.870;0.022;2023-09-12T02:45:34;6.80;;;5.05;;
37805;SDS011;25082;50.870;0.022;2023-09-12T02:48:00;6.13;;;4.68;;
37805;SDS011;25082;50.870;0.022;2023-09-12T02:50:25;5.15;;;4.40;;
37805;SDS011;25082;50.870;0.022;2023-09-12T02:52:51;6.63;;;4.97;;
37805;SDS011;25082;50.870;0.022;2023-09-12T02:55:17;6.65;;;4.78;;
37805;SDS011;25082;50.870;0.022;2023-09-12T02:57:42;6.45;;;4.80;;
37805;SDS011;25082;50.870;0.022;2023-09-12T03:00:08;5.80;;;4.82;;
37805;SDS011;25082;50.870;0.022;2023-09-12T03:02:36;6.60;;;5.00;;
37805;SDS011;25082;50.870;0.022;2023-09-12T03:05:02;5.78;;;4.82;;
37805;SDS011;25082;50.870;0.022;2023-09-12T03:07:29;6.40;;;5.10;;
37805;SDS011;25082;50.870;0.022;2023-09-12T03:09:55;6.22;;;5.10;;
37805;SDS011;25082;50.870;0.022;2023-09-12T03:12:21;5.72;;;4.60;;
37805;SDS011;25082;50.870;0.022;2023-09-12T03:14:46;5.47;;;4.65;;
37805;SDS011;25082;50.870;0.022;2023-09-12T03:17:12;8.30;;;5.50;;
37805;SDS011;25082;50.870;0.022;2023-09-12T03:19:38;6.40;;;4.95;;
37805;SDS011;25082;50.870;0.022;2023-09-12T03:22:03;7.53;;;5.22;;
37805;SDS011;25082;50.870;0.022;2023-09-12T03:24:29;5.50;;;4.50;;
37805;SDS011;25082;50.870;0.022;2023-09-12T03:26:56;5.55;;;4.50;;
37805;SDS011;25082;50.870;0.022;2023-09-12T03:29:21;5.68;;;5.07;;
37805;SDS011;25082;50.870;0.022;2023-09-12T03:31:48;5.95;;;4.88;;
37805;SDS011;25082;50.870;0.022;2023-09-12T03:34:14;6.25;;;4.88;;
37805;SDS011;25082;50.870;0.022;2023-09-12T03:36:39;6.93;;;4.93;;
37805;SDS011;25082;50.870;0.022;2023-09-12T03:39:05;6.38;;;5.15;;
37805;SDS011;25082;50.870;0.022;2023-09-12T03:41:33;5.97;;;4.22;;
37805;SDS011;25082;50.870;0.022;2023-09-12T03:44:02;5.88;;;4.85;;
37805;SDS011;25082;50.870;0.022;2023-09-12T03:46:28;5.68;;;4.82;;
37805;SDS011;25082;50.870;0.022;2023-09-12T03:48:54;6.40;;;4.80;;
37805;SDS011;25082;50.870;0.022;2023-09-12T03:51:19;5.82;;;4.70;;
37805;SDS011;25082;50.870;0.022;2023-09-12T03:53:45;7.45;;;5.53;;
37805;SDS011;25082;50.870;0.022;2023-09-12T03:56:12;6.20;;;5.18;;
37805;SDS011;25082;50.870;0.022;2023-09-12T03:58:40;5.65;;;4.70;;
37805;SDS011;25082;50.870;0.022;2023-09-12T04:01:06;6.03;;;4.82;;
37805;SDS011;25082;50.870;0.022;2023-09-12T04:03:32;6.55;;;5.22;;
37805;SDS011;25082;50.870;0.022;2023-09-12T04:05:57;8.52;;;5.53;;
37805;SDS011;25082;50.870;0.022;2023-09-12T04:08:23;8.40;;;5.63;;
37805;SDS011;25082;50.870;0.022;2023-09-12T04:10:49;6.82;;;5.10;;
37805;SDS011;25082;50.870;0.022;2023-09-12T04:13:14;7.65;;;5.22;;
37805;SDS011;25082;50.870;0.022;2023-09-12T04:15:40;7.30;;;5.35;;
37805;SDS011;25082;50.870;0.022;2023-09-12T04:18:06;9.52;;;5.97;;
37805;SDS011;25082;50.870;0.022;2023-09-12T04:20:32;6.88;;;5.38;;
37805;SDS011;25082;50.870;0.022;2023-09-12T04:23:00;7.75;;;5.45;;
37805;SDS011;25082;50.870;0.022;2023-09-12T04:25:27;7.90;;;5.63;;
37805;SDS011;25082;50.870;0.022;2023-09-12T04:27:53;6.30;;;5.35;;
37805;SDS011;25082;50.870;0.022;2023-09-12T04:30:19;7.97;;;5.22;;
37805;SDS011;25082;50.870;0.022;2023-09-12T04:32:45;5.93;;;5.32;;
37805;SDS011;25082;50.870;0.022;2023-09-12T04:35:10;5.85;;;5.20;;
37805;SDS011;25082;50.870;0.022;2023-09-12T04:37:36;8.25;;;5.40;;
37805;SDS011;25082;50.870;0.022;2023-09-12T04:40:06;5.90;;;5.10;;
37805;SDS011;25082;50.870;0.022;2023-09-12T04:42:33;5.97;;;5.10;;
37805;SDS011;25082;50.870;0.022;2023-09-12T04:44:59;7.20;;;5.28;;
37805;SDS011;25082;50.870;0.022;2023-09-12T04:47:25;5.95;;;4.57;;
37805;SDS011;25082;50.870;0.022;2023-09-12T04:49:50;6.75;;;5.13;;
37805;SDS011;25082;50.870;0.022;2023-09-12T04:52:17;7.63;;;5.50;;
37805;SDS011;25082;50.870;0.022;2023-09-12T04:54:42;7.57;;;5.32;;
37805;SDS011;25082;50.870;0.022;2023-09-12T04:57:08;6.05;;;5.05;;
37805;SDS011;25082;50.870;0.022;2023-09-12T04:59:34;6.43;;;5.60;;
37805;SDS011;25082;50.870;0.022;2023-09-12T05:01:59;7.53;;;5.65;;
37805;SDS011;25082;50.870;0.022;2023-09-12T05:04:25;10.32;;;6.03;;
37805;SDS011;25082;50.870;0.022;2023-09-12T05:06:51;6.68;;;5.00;;
37805;SDS011;25082;50.870;0.022;2023-09-12T05:09:16;9.38;;;5.25;;
37805;SDS011;25082;50.870;0.022;2023-09-12T05:11:42;6.68;;;5.40;;
37805;SDS011;25082;50.870;0.022;2023-09-12T05:14:09;9.15;;;5.22;;
37805;SDS011;25082;50.870;0.022;2023-09-12T05:16:35;5.82;;;5.03;;
37805;SDS011;25082;50.870;0.022;2023-09-12T05:19:00;6.88;;;5.30;;
37805;SDS011;25082;50.870;0.022;2023-09-12T05:21:26;8.00;;;4.95;;
37805;SDS011;25082;50.870;0.022;2023-09-12T05:23:52;6.88;;;4.97;;
37805;SDS011;25082;50.870;0.022;2023-09-12T05:26:18;5.43;;;4.70;;
37805;SDS011;25082;50.870;0.022;2023-09-12T05:28:43;6.10;;;4.95;;
37805;SDS011;25082;50.870;0.022;2023-09-12T05:31:09;5.15;;;4.15;;
37805;SDS011;25082;50.870;0.022;2023-09-12T05:33:35;5.97;;;5.38;;
37805;SDS011;25082;50.870;0.022;2023-09-12T05:36:01;6.43;;;4.85;;
37805;SDS011;25082;50.870;0.022;2023-09-12T05:38:27;5.05;;;4.38;;
37805;SDS011;25082;50.870;0.022;2023-09-12T05:40:53;6.45;;;5.30;;
37805;SDS011;25082;50.870;0.022;2023-09-12T05:43:21;7.18;;;5.03;;
37805;SDS011;25082;50.870;0.022;2023-09-12T05:45:47;6.60;;;5.38;;
37805;SDS011;25082;50.870;0.022;2023-09-12T05:48:13;5.38;;;4.45;;
37805;SDS011;25082;50.870;0.022;2023-09-12T05:50:38;5.72;;;4.70;;
37805;SDS011;25082;50.870;0.022;2023-09-12T05:53:04;7.35;;;4.97;;
37805;SDS011;25082;50.870;0.022;2023-09-12T05:55:30;7.25;;;5.82;;
37805;SDS011;25082;50.870;0.022;2023-09-12T05:57:55;6.50;;;5.20;;
37805;SDS011;25082;50.870;0.022;2023-09-12T06:00:21;7.43;;;5.30;;
37805;SDS011;25082;50.870;0.022;2023-09-12T06:02:47;6.80;;;5.70;;
37805;SDS011;25082;50.870;0.022;2023-09-12T06:05:13;6.13;;;4.95;;
37805;SDS011;25082;50.870;0.022;2023-09-12T06:07:40;6.10;;;5.18;;
37805;SDS011;25082;50.870;0.022;2023-09-12T06:10:06;7.53;;;5.53;;
37805;SDS011;25082;50.870;0.022;2023-09-12T06:12:33;5.80;;;4.68;;
37805;SDS011;25082;50.870;0.022;2023-09-12T06:15:01;6.78;;;5.50;;
37805;SDS011;25082;50.870;0.022;2023-09-12T06:17:27;7.50;;;5.47;;
37805;SDS011;25082;50.870;0.022;2023-09-12T06:19:54;6.28;;;5.15;;
37805;SDS011;25082;50.870;0.022;2023-09-12T06:22:20;6.63;;;4.88;;
37805;SDS011;25082;50.870;0.022;2023-09-12T06:24:47;7.32;;;5.15;;
37805;SDS011;25082;50.870;0.022;2023-09-12T06:27:14;8.00;;;5.50;;
37805;SDS011;25082;50.870;0.022;2023-09-12T06:29:44;6.57;;;4.72;;
37805;SDS011;25082;50.870;0.022;2023-09-12T06:32:11;6.95;;;5.15;;
37805;SDS011;25082;50.870;0.022;2023-09-12T06:34:36;6.95;;;5.25;;
37805;SDS011;25082;50.870;0.022;2023-09-12T06:37:02;6.53;;;5.30;;
37805;SDS011;25082;50.870;0.022;2023-09-12T06:39:28;7.00;;;5.00;;
37805;SDS011;25082;50.870;0.022;2023-09-12T06:41:53;7.88;;;5.13;;
37805;SDS011;25082;50.870;0.022;2023-09-12T06:44:19;6.93;;;5.30;;
37805;SDS011;25082;50.870;0.022;2023-09-12T06:46:45;6.65;;;5.10;;
37805;SDS011;25082;50.870;0.022;2023-09-12T06:49:10;7.22;;;5.22;;
37805;SDS011;25082;50.870;0.022;2023-09-12T06:51:36;6.38;;;4.57;;
37805;SDS011;25082;50.870;0.022;2023-09-12T06:54:02;6.93;;;5.10;;
37805;SDS011;25082;50.870;0.022;2023-09-12T06:56:28;7.10;;;5.43;;
37805;SDS011;25082;50.870;0.022;2023-09-12T06:58:53;6.18;;;5.07;;
37805;SDS011;25082;50.870;0.022;2023-09-12T07:01:20;7.50;;;5.35;;
37805;SDS011;25082;50.870;0.022;2023-09-12T07:03:46;8.13;;;5.40;;
37805;SDS011;25082;50.870;0.022;2023-09-12T07:06:12;7.25;;;5.47;;
37805;SDS011;25082;50.870;0.022;2023-09-12T07:08:37;6.82;;;5.22;;
37805;SDS011;25082;50.870;0.022;2023-09-12T07:11:04;9.88;;;5.85;;
37805;SDS011;25082;50.870;0.022;2023-09-12T07:13:31;7.47;;;5.72;;
37805;SDS011;25082;50.870;0.022;2023-09-12T07:15:58;6.03;;;5.32;;
37805;SDS011;25082;50.870;0.022;2023-09-12T07:18:24;6.85;;;5.60;;
37805;SDS011;25082;50.870;0.022;2023-09-12T07:20:57;6.97;;;5.60;;
37805;SDS011;25082;50.870;0.022;2023-09-12T07:23:24;7.38;;;5.40;;
37805;SDS011;25082;50.870;0.022;2023-09-12T07:25:49;7.30;;;5.63;;
37805;SDS011;25082;50.870;0.022;2023-09-12T07:28:15;7.50;;;5.57;;
37805;SDS011;25082;50.870;0.022;2023-09-12T07:30:41;8.10;;;5.95;;
37805;SDS011;25082;50.870;0.022;2023-09-12T07:33:10;8.10;;;5.45;;
37805;SDS011;25082;50.870;0.022;2023-09-12T07:35:36;6.47;;;5.32;;
37805;SDS011;25082;50.870;0.022;2023-09-12T07:38:01;5.97;;;4.82;;
37805;SDS011;25082;50.870;0.022;2023-09-12T07:40:28;6.25;;;4.53;;
37805;SDS011;25082;50.870;0.022;2023-09-12T07:42:54;6.25;;;5.00;;
37805;SDS011;25082;50.870;0.022;2023-09-12T07:45:20;6.25;;;5.32;;
37805;SDS011;25082;50.870;0.022;2023-09-12T07:47:46;6.45;;;5.05;;
37805;SDS011;25082;50.870;0.022;2023-09-12T07:50:12;6.22;;;5.10;;
37805;SDS011;25082;50.870;0.022;2023-09-12T07:52:40;7.35;;;4.93;;
37805;SDS011;25082;50.870;0.022;2023-09-12T07:55:06;5.90;;;4.93;;
37805;SDS011;25082;50.870;0.022;2023-09-12T07:57:33;6.05;;;4.63;;
37805;SDS011;25082;50.870;0.022;2023-09-12T07:59:59;6.30;;;4.80;;
37805;SDS011;25082;50.870;0.022;2023-09-12T08:02:34;7.10;;;5.38;;
37805;SDS011;25082;50.870;0.022;2023-09-12T08:05:00;6.82;;;4.85;;
37805;SDS011;25082;50.870;0.022;2023-09-12T08:07:26;7.20;;;5.15;;
37805;SDS011;25082;50.870;0.022;2023-09-12T08:12:22;13.60;;;6.90;;
37805;SDS011;25082;50.870;0.022;2023-09-12T08:14:49;11.80;;;8.02;;
37805;SDS011;25082;50.870;0.022;2023-09-12T08:17:15;12.15;;;8.23;;
37805;SDS011;25082;50.870;0.022;2023-09-12T08:19:41;12.93;;;9.00;;
37805;SDS011;25082;50.870;0.022;2023-09-12T08:22:08;12.40;;;7.93;;
37805;SDS011;25082;50.870;0.022;2023-09-12T08:24:34;11.65;;;6.85;;
37805;SDS011;25082;50.870;0.022;2023-09-12T08:27:01;11.63;;;8.02;;
37805;SDS011;25082;50.870;0.022;2023-09-12T08:29:30;12.35;;;7.20;;
37805;SDS011;25082;50.870;0.022;2023-09-12T08:31:59;10.93;;;7.03;;
37805;SDS011;25082;50.870;0.022;2023-09-12T08:34:25;11.77;;;8.00;;
37805;SDS011;25082;50.870;0.022;2023-09-12T08:36:51;13.20;;;7.85;;
37805;SDS011;25082;50.870;0.022;2023-09-12T08:39:26;14.63;;;7.53;;
37805;SDS011;25082;50.870;0.022;2023-09-12T08:41:53;9.70;;;5.85;;
37805;SDS011;25082;50.870;0.022;2023-09-12T08:44:20;10.02;;;6.25;;
37805;SDS011;25082;50.870;0.022;2023-09-12T08:46:46;10.55;;;6.40;;
37805;SDS011;25082;50.870;0.022;2023-09-12T08:49:12;10.88;;;7.00;;
37805;SDS011;25082;50.870;0.022;2023-09-12T08:51:39;10.35;;;6.78;;
37805;SDS011;25082;50.870;0.022;2023-09-12T08:54:05;8.90;;;5.85;;
37805;SDS011;25082;50.870;0.022;2023-09-12T08:56:32;7.45;;;4.95;;
37805;SDS011;25082;50.870;0.022;2023-09-12T08:59:01;9.52;;;5.63;;
37805;SDS011;25082;50.870;0.022;2023-09-12T09:01:32;9.05;;;5.22;;
37805;SDS011;25082;50.870;0.022;2023-09-12T09:03:59;8.77;;;4.13;;
37805;SDS011;25082;50.870;0.022;2023-09-12T09:06:27;8.80;;;3.88;;
37805;SDS011;25082;50.870;0.022;2023-09-12T09:08:57;8.02;;;3.60;;
37805;SDS011;25082;50.870;0.022;2023-09-12T09:11:24;7.43;;;3.83;;
37805;SDS011;25082;50.870;0.022;2023-09-12T09:13:52;5.88;;;3.70;;
37805;SDS011;25082;50.870;0.022;2023-09-12T09:16:18;6.80;;;3.40;;
37805;SDS011;25082;50.870;0.022;2023-09-12T09:19:04;6.70;;;3.30;;
37805;SDS011;25082;50.870;0.022;2023-09-12T09:21:34;10.95;;;3.70;;
37805;SDS011;25082;50.870;0.022;2023-09-12T09:24:02;6.30;;;2.40;;
37805;SDS011;25082;50.870;0.022;2023-09-12T09:26:44;3.92;;;2.40;;
37805;SDS011;25082;50.870;0.022;2023-09-12T09:29:10;3.13;;;2.28;;
37805;SDS011;25082;50.870;0.022;2023-09-12T09:31:41;5.55;;;2.40;;
37805;SDS011;25082;50.870;0.022;2023-09-12T09:36:43;5.95;;;2.42;;
37805;SDS011;25082;50.870;0.022;2023-09-12T09:39:12;6.07;;;2.85;;
37805;SDS011;25082;50.870;0.022;2023-09-12T09:41:39;7.30;;;2.45;;
37805;SDS011;25082;50.870;0.022;2023-09-12T09:44:05;5.43;;;2.88;;
37805;SDS011;25082;50.870;0.022;2023-09-12T09:46:32;4.03;;;2.40;;
37805;SDS011;25082;50.870;0.022;2023-09-12T09:48:59;4.82;;;2.50;;
37805;SDS011;25082;50.870;0.022;2023-09-12T09:51:25;5.80;;;2.45;;
37805;SDS011;25082;50.870;0.022;2023-09-12T09:53:52;6.57;;;2.42;;
37805;SDS011;25082;50.870;0.022;2023-09-12T09:56:22;3.33;;;2.35;;
37805;SDS011;25082;50.870;0.022;2023-09-12T09:58:53;4.40;;;2.28;;
37805;SDS011;25082;50.870;0.022;2023-09-12T10:01:20;4.70;;;2.72;;
37805;SDS011;25082;50.870;0.022;2023-09-12T10:03:47;5.43;;;1.85;;
37805;SDS011;25082;50.870;0.022;2023-09-12T10:06:16;3.40;;;1.92;;
37805;SDS011;25082;50.870;0.022;2023-09-12T10:08:44;6.50;;;2.33;;
37805;SDS011;25082;50.870;0.022;2023-09-12T10:11:17;5.50;;;2.55;;
37805;SDS011;25082;50.870;0.022;2023-09-12T10:13:46;3.70;;;2.33;;
37805;SDS011;25082;50.870;0.022;2023-09-12T10:16:15;3.35;;;1.70;;
37805;SDS011;25082;50.870;0.022;2023-09-12T10:18:46;5.07;;;2.25;;
37805;SDS011;25082;50.870;0.022;2023-09-12T10:21:24;3.70;;;1.75;;
37805;SDS011;25082;50.870;0.022;2023-09-12T10:23:55;3.90;;;2.00;;
37805;SDS011;25082;50.870;0.022;2023-09-12T10:26:23;5.70;;;2.35;;
37805;SDS011;25082;50.870;0.022;2023-09-12T10:28:49;2.97;;;2.08;;
37805;SDS011;25082;50.870;0.022;2023-09-12T10:31:17;5.07;;;2.53;;
37805;SDS011;25082;50.870;0.022;2023-09-12T10:33:44;3.50;;;2.20;;
37805;SDS011;25082;50.870;0.022;2023-09-12T10:36:11;4.15;;;1.80;;
37805;SDS011;25082;50.870;0.022;2023-09-12T10:38:42;4.70;;;2.08;;
37805;SDS011;25082;50.870;0.022;2023-09-12T10:41:12;5.80;;;1.90;;
37805;SDS011;25082;50.870;0.022;2023-09-12T10:46:08;10.18;;;2.05;;
37805;SDS011;25082;50.870;0.022;2023-09-12T10:48:34;5.28;;;2.17;;
37805;SDS011;25082;50.870;0.022;2023-09-12T10:51:01;4.78;;;2.40;;
37805;SDS011;25082;50.870;0.022;2023-09-12T10:53:31;3.70;;;2.03;;
37805;SDS011;25082;50.870;0.022;2023-09-12T10:55:59;8.52;;;2.88;;
37805;SDS011;25082;50.870;0.022;2023-09-12T10:59:08;5.22;;;1.98;;
37805;SDS011;25082;50.870;0.022;2023-09-12T11:01:34;4.72;;;2.42;;
37805;SDS011;25082;50.870;0.022;2023-09-12T11:06:49;4.70;;;2.20;;
37805;SDS011;25082;50.870;0.022;2023-09-12T11:09:22;2.88;;;1.88;;
37805;SDS011;25082;50.870;0.022;2023-09-12T11:11:56;4.38;;;2.38;;
37805;SDS011;25082;50.870;0.022;2023-09-12T11:14:24;2.38;;;1.83;;
37805;SDS011;25082;50.870;0.022;2023-09-12T11:19:45;3.13;;;2.08;;
37805;SDS011;25082;50.870;0.022;2023-09-12T11:22:21;3.00;;;2.25;;
37805;SDS011;25082;50.870;0.022;2023-09-12T11:24:46;6.25;;;2.50;;
37805;SDS011;25082;50.870;0.022;2023-09-12T11:27:12;3.60;;;2.35;;
37805;SDS011;25082;50.870;0.022;2023-09-12T11:29:39;3.30;;;1.98;;
37805;SDS011;25082;50.870;0.022;2023-09-12T11:32:06;3.63;;;1.92;;
37805;SDS011;25082;50.870;0.022;2023-09-12T11:34:36;3.25;;;1.90;;
37805;SDS011;25082;50.870;0.022;2023-09-12T11:37:03;4.47;;;2.42;;
37805;SDS011;25082;50.870;0.022;2023-09-12T11:39:33;3.72;;;2.40;;
37805;SDS011;25082;50.870;0.022;2023-09-12T11:42:00;2.67;;;1.45;;
37805;SDS011;25082;50.870;0.022;2023-09-12T11:44:27;3.33;;;2.00;;
37805;SDS011;25082;50.870;0.022;2023-09-12T11:46:56;2.75;;;2.13;;
37805;SDS011;25082;50.870;0.022;2023-09-12T11:49:28;4.80;;;1.70;;
37805;SDS011;25082;50.870;0.022;2023-09-12T11:52:00;8.60;;;2.53;;
37805;SDS011;25082;50.870;0.022;2023-09-12T11:54:26;4.13;;;2.20;;
37805;SDS011;25082;50.870;0.022;2023-09-12T11:56:52;4.68;;;2.15;;
37805;SDS011;25082;50.870;0.022;2023-09-12T11:59:24;3.13;;;2.28;;
37805;SDS011;25082;50.870;0.022;2023-09-12T12:01:54;4.30;;;2.40;;
37805;SDS011;25082;50.870;0.022;2023-09-12T12:04:23;7.47;;;2.28;;
37805;SDS011;25082;50.870;0.022;2023-09-12T12:06:50;4.13;;;2.28;;
37805;SDS011;25082;50.870;0.022;2023-09-12T12:09:17;4.05;;;2.28;;
37805;SDS011;25082;50.870;0.022;2023-09-12T12:11:44;2.30;;;1.73;;
37805;SDS011;25082;50.870;0.022;2023-09-12T12:14:15;2.78;;;1.75;;
37805;SDS011;25082;50.870;0.022;2023-09-12T12:16:42;4.85;;;2.20;;
37805;SDS011;25082;50.870;0.022;2023-09-12T12:19:12;5.03;;;2.30;;
37805;SDS011;25082;50.870;0.022;2023-09-12T12:21:39;3.42;;;2.38;;
37805;SDS011;25082;50.870;0.022;2023-09-12T12:24:13;2.35;;;1.90;;
37805;SDS011;25082;50.870;0.022;2023-09-12T12:26:43;4.55;;;2.50;;
37805;SDS011;25082;50.870;0.022;2023-09-12T12:29:10;4.00;;;2.10;;
37805;SDS011;25082;50.870;0.022;2023-09-12T12:31:36;3.40;;;2.08;;
37805;SDS011;25082;50.870;0.022;2023-09-12T12:34:02;3.42;;;2.33;;
37805;SDS011;25082;50.870;0.022;2023-09-12T12:36:29;6.35;;;2.63;;
37805;SDS011;25082;50.870;0.022;2023-09-12T12:38:55;4.63;;;3.03;;
37805;SDS011;25082;50.870;0.022;2023-09-12T12:41:24;10.50;;;3.58;;
37805;SDS011;25082;50.870;0.022;2023-09-12T12:43:52;7.88;;;3.30;;
37805;SDS011;25082;50.870;0.022;2023-09-12T12:46:20;7.25;;;3.67;;
37805;SDS011;25082;50.870;0.022;2023-09-12T12:48:46;4.78;;;2.97;;
37805;SDS011;25082;50.870;0.022;2023-09-12T12:51:13;8.27;;;3.45;;
37805;SDS011;25082;50.870;0.022;2023-09-12T12:53:42;6.30;;;3.20;;
37805;SDS011;25082;50.870;0.022;2023-09-12T12:56:15;4.78;;;3.25;;
37805;SDS011;25082;50.870;0.022;2023-09-12T12:58:47;7.05;;;3.35;;
37805;SDS011;25082;50.870;0.022;2023-09-12T13:01:14;5.70;;;3.60;;
37805;SDS011;25082;50.870;0.022;2023-09-12T13:03:41;4.95;;;3.28;;
37805;SDS011;25082;50.870;0.022;2023-09-12T13:06:07;6.13;;;3.60;;
37805;SDS011;25082;50.870;0.022;2023-09-12T13:08:38;3.97;;;3.08;;
37805;SDS011;25082;50.870;0.022;2023-09-12T13:11:05;5.57;;;3.22;;
37805;SDS011;25082;50.870;0.022;2023-09-12T13:13:31;7.60;;;3.47;;
37805;SDS011;25082;50.870;0.022;2023-09-12T13:15:57;7.15;;;3.17;;
37805;SDS011;25082;50.870;0.022;2023-09-12T13:18:23;5.15;;;3.50;;
37805;SDS011;25082;50.870;0.022;2023-09-12T13:20:48;6.95;;;3.50;;
37805;SDS011;25082;50.870;0.022;2023-09-12T13:23:14;4.53;;;3.30;;
37805;SDS011;25082;50.870;0.022;2023-09-12T13:25:40;4.85;;;3.15;;
37805;SDS011;25082;50.870;0.022;2023-09-12T13:28:05;5.93;;;2.90;;
37805;SDS011;25082;50.870;0.022;2023-09-12T13:30:31;4.75;;;3.10;;
37805;SDS011;25082;50.870;0.022;2023-09-12T13:32:57;5.72;;;3.22;;
37805;SDS011;25082;50.870;0.022;2023-09-12T13:35:22;4.47;;;3.28;;
37805;SDS011;25082;50.870;0.022;2023-09-12T13:37:48;10.75;;;3.55;;
37805;SDS011;25082;50.870;0.022;2023-09-12T13:40:14;6.72;;;3.25;;
37805;SDS011;25082;50.870;0.022;2023-09-12T13:42:40;7.38;;;3.30;;
37805;SDS011;25082;50.870;0.022;2023-09-12T13:45:06;7.80;;;2.92;;
37805;SDS011;25082;50.870;0.022;2023-09-12T13:47:32;9.68;;;3.42;;
37805;SDS011;25082;50.870;0.022;2023-09-12T13:49:58;3.30;;;2.90;;
37805;SDS011;25082;50.870;0.022;2023-09-12T13:52:25;7.53;;;2.90;;
37805;SDS011;25082;50.870;0.022;2023-09-12T13:54:52;5.88;;;2.97;;
37805;SDS011;25082;50.870;0.022;2023-09-12T13:57:18;4.45;;;3.00;;
37805;SDS011;25082;50.870;0.022;2023-09-12T13:59:44;3.78;;;3.08;;
37805;SDS011;25082;50.870;0.022;2023-09-12T14:02:10;7.05;;;3.70;;
37805;SDS011;25082;50.870;0.022;2023-09-12T14:04:35;6.30;;;2.70;;
37805;SDS011;25082;50.870;0.022;2023-09-12T14:07:01;5.75;;;3.20;;
37805;SDS011;25082;50.870;0.022;2023-09-12T14:09:28;6.53;;;3.03;;
37805;SDS011;25082;50.870;0.022;2023-09-12T14:11:53;5.60;;;3.42;;
37805;SDS011;25082;50.870;0.022;2023-09-12T14:14:19;5.13;;;3.20;;
37805;SDS011;25082;50.870;0.022;2023-09-12T14:16:45;6.60;;;3.08;;
37805;SDS011;25082;50.870;0.022;2023-09-12T14:19:11;4.90;;;3.35;;
37805;SDS011;25082;50.870;0.022;2023-09-12T14:21:37;6.40;;;2.95;;
37805;SDS011;25082;50.870;0.022;2023-09-12T14:24:03;5.05;;;2.90;;
37805;SDS011;25082;50.870;0.022;2023-09-12T14:26:29;11.82;;;3.65;;
37805;SDS011;25082;50.870;0.022;2023-09-12T14:28:55;5.35;;;3.05;;
37805;SDS011;25082;50.870;0.022;2023-09-12T14:31:21;4.13;;;2.55;;
37805;SDS011;25082;50.870;0.022;2023-09-12T14:33:48;7.15;;;2.95;;
37805;SDS011;25082;50.870;0.022;2023-09-12T14:36:14;6.65;;;3.63;;
37805;SDS011;25082;50.870;0.022;2023-09-12T14:38:40;4.75;;;3.05;;
37805;SDS011;25082;50.870;0.022;2023-09-12T14:41:06;4.35;;;3.10;;
37805;SDS011;25082;50.870;0.022;2023-09-12T14:43:34;4.63;;;3.45;;
37805;SDS011;25082;50.870;0.022;2023-09-12T14:46:00;6.45;;;4.20;;
37805;SDS011;25082;50.870;0.022;2023-09-12T14:48:26;6.18;;;3.75;;
37805;SDS011;25082;50.870;0.022;2023-09-12T14:50:52;6.90;;;3.92;;
37805;SDS011;25082;50.870;0.022;2023-09-12T14:53:18;9.27;;;4.20;;
37805;SDS011;25082;50.870;0.022;2023-09-12T14:55:44;11.15;;;4.93;;
37805;SDS011;25082;50.870;0.022;2023-09-12T14:58:10;9.32;;;5.25;;
37805;SDS011;25082;50.870;0.022;2023-09-12T15:00:36;7.22;;;4.85;;
37805;SDS011;25082;50.870;0.022;2023-09-12T15:03:03;9.32;;;4.40;;
37805;SDS011;25082;50.870;0.022;2023-09-12T15:05:29;8.68;;;4.20;;
37805;SDS011;25082;50.870;0.022;2023-09-12T15:07:55;6.18;;;4.53;;